NCAR-RAP Real-Time Weather Data

Output produced by METARs form (17 September 2019  16:35 UTC)
found at http://weather.rap.ucar.edu/surface/
 
KIND 171554Z 10011KT 10SM BKN250 24/17 A3016 RMK AO2 SLP208 T02440167
KIND 171454Z 08009KT 10SM BKN250 23/17 A3016 RMK AO2 SLP207 T02330167 53007
KIND 171354Z 08011KT 10SM BKN250 23/17 A3015 RMK AO2 SLP203 T02280167
KIND 171254Z 06006KT 8SM SCT250 20/18 A3014 RMK AO2 SLP202 T02000178
KIND 171154Z 04007KT 6SM BR FEW045 FEW250 19/18 A3014 RMK AO2 SLP199 T01890178 10217 20189 53015
KIND 171054Z 03007KT 8SM FEW045 FEW250 19/18 A3012 RMK AO2 SLP194 T01890178
KIND 170954Z 03007KT 10SM CLR 19/18 A3011 RMK AO2 SLP188 T01940178
KIND 170854Z 04007KT 10SM CLR 20/18 A3009 RMK AO2 SLP183 T02000178 53002
KIND 170754Z 07006KT 10SM FEW250 22/18 A3009 RMK AO2 SLP181 T02170178
KIND 170654Z 06008KT 10SM CLR 22/18 A3009 RMK AO2 SLP180 T02170183
KIND 170554Z 05009KT 10SM CLR 22/18 A3009 RMK AO2 SLP181 T02170183 10272 20217 51004
KIND 170354Z 03008KT 10SM FEW250 23/18 A3008 RMK AO2 SLP179 T02330183
KIND 170254Z 02006KT 10SM FEW250 24/19 A3007 RMK AO2 SLP177 T02390189 51011
KIND 170054Z 36007KT 10SM FEW250 26/19 A3005 RMK AO2 SLP170 T02610189
KIND 162354Z 35008KT 10SM FEW044 FEW250 27/18 A3004 RMK AO2 SLP167 T02720183 10317 20272 55000
KIND 162254Z 33010KT 10SM FEW044 29/18 A3004 RMK AO2 SLP165 T02890183
KIND 162154Z 35008KT 10SM FEW044 30/18 A3003 RMK AO2 SLP163 T03000178
KIND 162054Z 34010KT 10SM FEW044 31/18 A3004 RMK AO2 SLP165 T03060183 56013 $
KIND 161954Z 32009KT 10SM SCT044 31/19 A3005 RMK AO2 SLP168 T03060189 $